createdAt,value
2022-10-16T00:00:12.345Z,12.38
2022-10-16T00:01:15.083Z,12.38
2022-10-16T00:02:18.182Z,12.31
2022-10-16T00:03:53.646Z,12.31
2022-10-16T00:04:56.393Z,12.31
2022-10-16T00:05:59.220Z,12.25
2022-10-16T00:07:33.877Z,12.25
2022-10-16T00:08:36.685Z,12.25
2022-10-16T00:09:39.544Z,12.19
2022-10-16T00:11:14.301Z,12.19
2022-10-16T00:12:17.281Z,12.19
2022-10-16T00:13:20.729Z,12.19
2022-10-16T00:14:55.443Z,12.13
2022-10-16T00:15:58.489Z,12.13
2022-10-16T00:17:01.328Z,12.13
2022-10-16T00:18:35.923Z,12.13
2022-10-16T00:19:38.722Z,12.13
2022-10-16T00:20:41.538Z,12.13
2022-10-16T00:22:16.409Z,12.13
2022-10-16T00:23:19.708Z,12.13
2022-10-16T00:24:22.880Z,12.13
2022-10-16T00:25:57.454Z,12.13
2022-10-16T00:27:00.396Z,12.06
2022-10-16T00:28:03.280Z,12.13
2022-10-16T00:29:38.474Z,12.13
2022-10-16T00:30:41.259Z,12.13
2022-10-16T00:31:43.929Z,12.13
2022-10-16T00:33:18.560Z,12.06
2022-10-16T00:34:21.517Z,12.06
2022-10-16T00:35:24.169Z,12.06
2022-10-16T00:36:58.643Z,12.06
2022-10-16T00:38:01.450Z,12.06
2022-10-16T00:39:04.290Z,12.06
2022-10-16T00:40:38.721Z,12.06
2022-10-16T00:41:41.587Z,12.06
2022-10-16T00:42:44.255Z,12.06
2022-10-16T00:44:18.954Z,12.00
2022-10-16T00:45:22.020Z,12.06
2022-10-16T00:46:24.703Z,12.06
2022-10-16T00:47:59.531Z,12.06
2022-10-16T00:49:02.399Z,12.06
2022-10-16T00:50:05.319Z,12.00
2022-10-16T00:51:40.065Z,12.06
2022-10-16T00:52:42.898Z,12.06
2022-10-16T00:53:45.608Z,12.00
2022-10-16T00:55:20.242Z,12.00
2022-10-16T00:56:28.402Z,12.00
2022-10-16T00:57:31.278Z,12.00
2022-10-16T00:59:05.663Z,12.00
2022-10-16T01:00:11.869Z,12.00
2022-10-16T01:01:14.654Z,12.00
2022-10-16T01:02:18.020Z,12.00
2022-10-16T01:03:53.188Z,12.00
2022-10-16T01:04:55.925Z,12.00
2022-10-16T01:05:58.715Z,11.94
2022-10-16T01:07:33.636Z,11.94
2022-10-16T01:08:36.594Z,11.94
2022-10-16T01:09:39.435Z,11.94
2022-10-16T01:11:14.008Z,11.94
2022-10-16T01:12:16.873Z,11.88
2022-10-16T01:13:28.246Z,11.88
2022-10-16T01:15:02.703Z,11.88
2022-10-16T01:16:05.425Z,11.88
2022-10-16T01:17:08.118Z,11.88
2022-10-16T01:18:43.195Z,11.88
2022-10-16T01:19:46.122Z,11.88
2022-10-16T01:20:48.808Z,11.88
2022-10-16T01:22:23.499Z,11.88
2022-10-16T01:23:26.383Z,11.88
2022-10-16T01:24:29.320Z,11.88
2022-10-16T01:26:04.154Z,11.88
2022-10-16T01:27:06.929Z,11.88
2022-10-16T01:28:10.968Z,11.88
2022-10-16T01:29:45.924Z,11.94
2022-10-16T01:30:48.695Z,11.94
2022-10-16T01:31:51.343Z,11.94
2022-10-16T01:33:25.915Z,11.94
2022-10-16T01:34:28.797Z,11.94
2022-10-16T01:35:31.568Z,11.94
2022-10-16T01:37:06.079Z,11.94
2022-10-16T01:38:09.339Z,12.00
2022-10-16T01:39:12.250Z,12.00
2022-10-16T01:40:46.958Z,12.00
2022-10-16T01:41:49.704Z,12.00
2022-10-16T01:42:52.649Z,12.00
2022-10-16T01:44:28.389Z,12.00
2022-10-16T01:45:31.173Z,12.00
2022-10-16T01:46:33.856Z,12.00
2022-10-16T01:48:08.948Z,12.06
2022-10-16T01:49:11.693Z,12.06
2022-10-16T01:50:14.395Z,12.06
2022-10-16T01:51:48.890Z,12.06
2022-10-16T01:52:52.950Z,12.06
2022-10-16T01:53:55.592Z,12.06
2022-10-16T01:55:30.112Z,12.06
2022-10-16T01:56:32.795Z,12.06
2022-10-16T01:57:35.492Z,12.06
2022-10-16T01:59:10.235Z,12.00
2022-10-16T02:00:12.522Z,12.06
2022-10-16T02:02:19.186Z,12.06
2022-10-16T02:03:54.324Z,12.06
2022-10-16T02:04:57.108Z,12.06
2022-10-16T02:05:59.784Z,12.06
2022-10-16T02:07:34.617Z,12.06
2022-10-16T02:08:40.874Z,12.06
2022-10-16T02:09:43.897Z,12.06
2022-10-16T02:11:19.230Z,12.06
2022-10-16T02:12:22.071Z,12.06
2022-10-16T02:13:25.445Z,12.06
2022-10-16T02:14:59.919Z,12.00
2022-10-16T02:16:02.798Z,12.00
2022-10-16T02:17:05.466Z,12.06
2022-10-16T02:18:40.136Z,12.06
2022-10-16T02:19:43.129Z,12.06
2022-10-16T02:20:46.011Z,12.06
2022-10-16T02:22:20.557Z,12.06
2022-10-16T02:23:23.928Z,12.06
2022-10-16T02:24:26.622Z,12.06
2022-10-16T02:26:01.267Z,12.06
2022-10-16T02:27:03.913Z,12.13
2022-10-16T02:28:06.572Z,12.13
2022-10-16T02:29:41.615Z,12.13
2022-10-16T02:30:44.331Z,12.13
2022-10-16T02:31:47.197Z,12.13
2022-10-16T02:33:21.751Z,12.13
2022-10-16T02:34:24.497Z,12.13
2022-10-16T02:35:27.259Z,12.13
2022-10-16T02:37:01.842Z,12.13
2022-10-16T02:38:04.632Z,12.13
2022-10-16T02:39:07.289Z,12.13
2022-10-16T02:40:41.827Z,12.13
2022-10-16T02:41:44.642Z,12.13
2022-10-16T02:42:47.444Z,12.13
2022-10-16T02:44:22.010Z,12.13
2022-10-16T02:45:24.898Z,12.13
2022-10-16T02:46:27.830Z,12.13
2022-10-16T02:48:02.414Z,12.13
2022-10-16T02:49:05.112Z,12.13
2022-10-16T02:50:08.005Z,12.13
2022-10-16T02:51:42.742Z,12.13
2022-10-16T02:52:45.635Z,12.19
2022-10-16T02:53:48.553Z,12.13
2022-10-16T02:55:23.073Z,12.13
2022-10-16T02:56:26.040Z,12.13
2022-10-16T02:57:29.484Z,12.13
2022-10-16T02:59:04.082Z,12.13
2022-10-16T03:00:12.105Z,12.13
2022-10-16T03:01:15.166Z,12.13
2022-10-16T03:02:18.555Z,12.13
2022-10-16T03:03:52.935Z,12.13
2022-10-16T03:04:55.640Z,12.13
2022-10-16T03:05:58.900Z,12.13
2022-10-16T03:07:33.383Z,12.13
2022-10-16T03:08:36.008Z,12.13
2022-10-16T03:09:38.654Z,12.13
2022-10-16T03:11:13.249Z,12.13
2022-10-16T03:12:16.087Z,12.13
2022-10-16T03:13:18.771Z,12.13
2022-10-16T03:14:53.387Z,12.13
2022-10-16T03:15:56.142Z,12.13
2022-10-16T03:16:58.921Z,12.13
2022-10-16T03:18:34.057Z,12.13
2022-10-16T03:19:36.741Z,12.13
2022-10-16T03:20:39.586Z,12.13
2022-10-16T03:22:14.056Z,12.13
2022-10-16T03:23:16.881Z,12.13
2022-10-16T03:24:19.835Z,12.13
2022-10-16T03:25:54.692Z,12.19
2022-10-16T03:26:57.622Z,12.13
2022-10-16T03:28:00.706Z,12.13
2022-10-16T03:29:35.826Z,12.19
2022-10-16T03:30:38.518Z,12.13
2022-10-16T03:31:41.192Z,12.13
2022-10-16T03:33:15.876Z,12.19
2022-10-16T03:34:18.755Z,12.19
2022-10-16T03:35:21.696Z,12.13
2022-10-16T03:36:56.309Z,12.19
2022-10-16T03:37:59.828Z,12.13
2022-10-16T03:39:02.612Z,12.19
2022-10-16T03:40:37.118Z,12.19
2022-10-16T03:41:39.805Z,12.19
2022-10-16T03:42:42.806Z,12.19
2022-10-16T03:44:17.702Z,12.19
2022-10-16T03:45:20.413Z,12.13
2022-10-16T03:46:23.226Z,12.13
2022-10-16T03:47:58.294Z,12.13
2022-10-16T03:49:02.933Z,12.06
2022-10-16T03:50:07.377Z,12.06
2022-10-16T03:51:42.000Z,12.06
2022-10-16T03:52:44.790Z,12.06
2022-10-16T03:53:47.528Z,12.06
2022-10-16T03:55:22.249Z,12.00
2022-10-16T03:56:25.033Z,12.00
2022-10-16T03:57:28.009Z,12.00
2022-10-16T03:59:02.892Z,12.00
2022-10-16T04:00:11.672Z,12.00
2022-10-16T04:01:14.692Z,12.00
2022-10-16T04:02:17.603Z,12.00
2022-10-16T04:03:53.573Z,12.00
2022-10-16T04:04:56.392Z,12.00
2022-10-16T04:05:40.519Z,12.00
2022-10-16T04:06:43.231Z,12.00
2022-10-16T04:07:45.968Z,12.00
2022-10-16T04:09:20.922Z,12.00
2022-10-16T04:10:23.819Z,12.00
2022-10-16T04:11:26.749Z,12.00
2022-10-16T04:13:01.549Z,12.00
2022-10-16T04:14:04.619Z,12.00
2022-10-16T04:15:07.478Z,12.00
2022-10-16T04:16:42.417Z,12.00
2022-10-16T04:17:45.542Z,12.00
2022-10-16T04:18:48.157Z,12.00
2022-10-16T04:20:22.897Z,12.00
2022-10-16T04:21:25.779Z,11.94
2022-10-16T04:22:28.763Z,12.00
2022-10-16T04:24:03.589Z,12.00
2022-10-16T04:25:06.455Z,12.00
2022-10-16T04:26:09.387Z,12.00
2022-10-16T04:27:46.087Z,12.00
2022-10-16T04:28:49.159Z,12.00
2022-10-16T04:29:52.383Z,11.94
2022-10-16T04:31:26.916Z,11.94
2022-10-16T04:32:29.712Z,11.94
2022-10-16T04:33:32.578Z,11.94
2022-10-16T04:35:06.954Z,11.94
2022-10-16T04:36:09.977Z,11.94
2022-10-16T04:37:17.147Z,11.94
2022-10-16T04:38:52.571Z,11.94
2022-10-16T04:39:55.498Z,11.94
2022-10-16T04:40:58.179Z,11.94
2022-10-16T04:42:32.877Z,12.00
2022-10-16T04:43:35.726Z,12.00
2022-10-16T04:44:38.438Z,12.00
2022-10-16T04:46:13.150Z,12.00
2022-10-16T04:47:15.863Z,12.00
2022-10-16T04:48:19.301Z,12.00
2022-10-16T04:49:53.965Z,11.94
2022-10-16T04:50:56.618Z,11.94
2022-10-16T04:51:59.470Z,11.94
2022-10-16T04:53:34.433Z,11.94
2022-10-16T04:54:37.301Z,11.94
2022-10-16T04:55:40.272Z,11.94
2022-10-16T04:57:14.973Z,11.94
2022-10-16T04:58:18.104Z,11.94
2022-10-16T04:59:20.902Z,11.94
2022-10-16T05:00:11.814Z,11.94
2022-10-16T05:01:14.660Z,11.94
2022-10-16T05:02:17.649Z,11.94
2022-10-16T05:03:53.539Z,11.94
2022-10-16T05:04:56.490Z,11.94
2022-10-16T05:05:59.379Z,11.94
2022-10-16T05:07:34.304Z,11.94
2022-10-16T05:08:37.068Z,11.94
2022-10-16T05:09:39.890Z,11.94
2022-10-16T05:11:14.778Z,11.94
2022-10-16T05:12:17.535Z,11.94
2022-10-16T05:13:20.338Z,11.94
2022-10-16T05:15:00.302Z,11.94
2022-10-16T05:16:02.985Z,11.94
2022-10-16T05:17:05.702Z,11.94
2022-10-16T05:18:41.182Z,11.94
2022-10-16T05:20:13.546Z,11.94
2022-10-16T05:21:16.319Z,11.88
2022-10-16T05:22:50.897Z,11.88
2022-10-16T05:23:53.857Z,11.88
2022-10-16T05:24:56.436Z,11.88
2022-10-16T05:26:30.883Z,11.88
2022-10-16T05:27:33.607Z,11.88
2022-10-16T05:28:36.462Z,11.88
2022-10-16T05:30:12.579Z,11.88
2022-10-16T05:31:15.638Z,11.81
2022-10-16T05:32:18.445Z,11.81
2022-10-16T05:33:53.041Z,11.81
2022-10-16T05:34:55.895Z,11.81
2022-10-16T05:36:04.278Z,11.81
2022-10-16T05:37:38.877Z,11.81
2022-10-16T05:38:41.639Z,11.81
2022-10-16T05:39:44.434Z,11.81
2022-10-16T05:41:18.976Z,11.81
2022-10-16T05:42:21.895Z,11.81
2022-10-16T05:43:24.624Z,11.81
2022-10-16T05:44:59.253Z,11.88
2022-10-16T05:46:02.067Z,11.88
2022-10-16T05:47:04.805Z,11.88
2022-10-16T05:48:40.100Z,11.88
2022-10-16T05:49:42.842Z,11.88
2022-10-16T05:50:45.565Z,11.88
2022-10-16T05:52:20.306Z,11.81
2022-10-16T05:53:23.066Z,11.81
2022-10-16T05:54:26.106Z,11.81
2022-10-16T05:56:00.578Z,11.81
2022-10-16T05:57:03.252Z,11.81
2022-10-16T05:58:06.934Z,11.75
2022-10-16T05:59:41.692Z,11.75
2022-10-16T06:00:12.862Z,11.75
2022-10-16T06:01:15.845Z,11.81
2022-10-16T06:02:19.051Z,11.81
2022-10-16T06:03:53.547Z,11.81
2022-10-16T06:04:57.730Z,11.81
2022-10-16T06:06:00.582Z,11.75
2022-10-16T06:07:41.403Z,11.75
2022-10-16T06:08:44.070Z,11.81
2022-10-16T06:09:47.128Z,11.75
2022-10-16T06:11:21.951Z,11.75
2022-10-16T06:12:24.733Z,11.75
2022-10-16T06:13:27.638Z,11.75
2022-10-16T06:15:02.297Z,11.75
2022-10-16T06:16:05.128Z,11.75
2022-10-16T06:17:07.977Z,11.75
2022-10-16T06:18:42.986Z,11.75
2022-10-16T06:19:45.695Z,11.75
2022-10-16T06:20:48.624Z,11.69
2022-10-16T06:22:23.166Z,11.69
2022-10-16T06:23:26.315Z,11.69
2022-10-16T06:24:29.401Z,11.69
2022-10-16T06:26:04.368Z,11.69
2022-10-16T06:27:06.985Z,11.69
2022-10-16T06:28:10.260Z,11.69
2022-10-16T06:29:45.737Z,11.69
2022-10-16T06:30:48.494Z,11.69
2022-10-16T06:31:58.736Z,11.69
2022-10-16T06:33:33.402Z,11.75
2022-10-16T06:34:36.910Z,11.75
2022-10-16T06:35:41.515Z,11.81
2022-10-16T06:37:15.954Z,11.88
2022-10-16T06:38:19.126Z,11.88
2022-10-16T06:39:22.033Z,11.88
2022-10-16T06:40:56.542Z,11.94
2022-10-16T06:43:03.902Z,12.00
2022-10-16T06:44:38.697Z,12.00
2022-10-16T06:45:41.391Z,12.06
2022-10-16T06:46:44.036Z,12.13
2022-10-16T06:48:18.624Z,12.13
2022-10-16T06:49:21.620Z,12.19
2022-10-16T06:50:29.225Z,12.19
2022-10-16T06:52:04.222Z,12.19
2022-10-16T06:53:07.697Z,12.19
2022-10-16T06:54:42.319Z,12.19
2022-10-16T06:56:17.448Z,12.19
2022-10-16T06:57:20.750Z,12.25
2022-10-16T06:58:23.576Z,12.25
2022-10-16T06:59:58.274Z,12.25
2022-10-16T07:00:12.435Z,12.25
2022-10-16T07:01:16.190Z,12.25
2022-10-16T07:02:18.929Z,12.25
2022-10-16T07:03:54.291Z,12.31
2022-10-16T07:04:57.071Z,12.31
2022-10-16T07:06:00.165Z,12.31
2022-10-16T07:07:34.841Z,12.31
2022-10-16T07:08:37.546Z,12.31
2022-10-16T07:09:40.307Z,12.31
2022-10-16T07:11:14.844Z,12.38
2022-10-16T07:12:17.899Z,12.38
2022-10-16T07:13:21.158Z,12.38
2022-10-16T07:15:02.867Z,12.38
2022-10-16T07:16:05.713Z,12.44
2022-10-16T07:17:08.520Z,12.44
2022-10-16T07:18:43.071Z,12.44
2022-10-16T07:19:47.654Z,12.50
2022-10-16T07:20:50.574Z,12.50
2022-10-16T07:22:25.475Z,12.56
2022-10-16T07:23:29.089Z,12.56
2022-10-16T07:24:32.196Z,12.63
2022-10-16T07:26:10.620Z,12.63
2022-10-16T07:27:13.424Z,12.69
2022-10-16T07:28:16.571Z,12.69
2022-10-16T07:29:51.861Z,12.69
2022-10-16T07:31:00.054Z,12.69
2022-10-16T07:32:03.166Z,12.75
2022-10-16T07:33:38.509Z,12.75
2022-10-16T07:34:41.311Z,12.75
2022-10-16T07:35:44.219Z,12.75
2022-10-16T07:37:23.022Z,12.75
2022-10-16T07:38:26.470Z,12.75
2022-10-16T07:39:34.977Z,12.75
2022-10-16T07:41:09.632Z,12.75
2022-10-16T07:42:12.646Z,12.75
2022-10-16T07:43:15.573Z,12.75
2022-10-16T07:44:50.034Z,12.75
2022-10-16T07:46:59.951Z,12.81
2022-10-16T07:48:35.139Z,12.81
2022-10-16T07:49:38.189Z,12.81
2022-10-16T07:50:41.004Z,12.81
2022-10-16T07:52:15.639Z,12.81
2022-10-16T07:53:20.524Z,12.88
2022-10-16T07:54:25.183Z,12.88
2022-10-16T07:56:00.049Z,12.88
2022-10-16T07:57:02.957Z,12.88
2022-10-16T07:58:06.216Z,12.88
2022-10-16T07:59:40.814Z,12.88
2022-10-16T08:00:11.622Z,12.88
2022-10-16T08:01:14.660Z,12.94
2022-10-16T08:02:18.349Z,12.88
2022-10-16T08:03:53.128Z,12.94
2022-10-16T08:04:56.928Z,12.94
2022-10-16T08:05:59.625Z,12.94
2022-10-16T08:07:40.131Z,12.94
2022-10-16T08:08:42.917Z,12.94
2022-10-16T08:09:45.724Z,12.94
2022-10-16T08:11:20.514Z,12.94
2022-10-16T08:12:23.443Z,12.94
2022-10-16T08:13:26.198Z,13.00
2022-10-16T08:15:01.082Z,13.00
2022-10-16T08:16:03.955Z,13.00
2022-10-16T08:17:06.803Z,13.00
2022-10-16T08:18:41.972Z,13.00
2022-10-16T08:19:44.756Z,13.00
2022-10-16T08:20:47.562Z,13.06
2022-10-16T08:22:28.428Z,13.13
2022-10-16T08:23:31.262Z,13.13
2022-10-16T08:24:40.978Z,13.19
2022-10-16T08:26:15.872Z,13.25
2022-10-16T08:27:18.671Z,13.31
2022-10-16T08:28:22.098Z,13.31
2022-10-16T08:29:57.860Z,13.31
2022-10-16T08:31:00.967Z,13.38
2022-10-16T08:32:03.871Z,13.38
2022-10-16T08:33:45.313Z,13.38
2022-10-16T08:34:48.199Z,13.44
2022-10-16T08:35:51.119Z,13.44
2022-10-16T08:37:25.700Z,13.44
2022-10-16T08:38:28.405Z,13.44
2022-10-16T08:39:31.254Z,13.44
2022-10-16T08:41:05.953Z,13.50
2022-10-16T08:42:08.968Z,13.63
2022-10-16T08:43:12.193Z,13.69
2022-10-16T08:44:46.789Z,13.81
2022-10-16T08:45:49.652Z,13.88
2022-10-16T08:46:52.410Z,13.94
2022-10-16T08:48:27.978Z,14.06
2022-10-16T08:49:30.711Z,14.19
2022-10-16T08:50:33.796Z,14.31
2022-10-16T08:52:08.414Z,14.38
2022-10-16T08:53:11.625Z,14.44
2022-10-16T08:54:14.403Z,14.50
2022-10-16T08:55:49.065Z,14.56
2022-10-16T08:56:51.923Z,14.69
2022-10-16T08:57:59.577Z,14.69
2022-10-16T08:59:40.489Z,14.75
2022-10-16T09:00:12.341Z,14.75
2022-10-16T09:01:15.491Z,14.75
2022-10-16T09:02:18.422Z,14.81
2022-10-16T09:03:54.257Z,14.81
2022-10-16T09:04:57.085Z,14.81
2022-10-16T09:06:00.056Z,14.81
2022-10-16T09:07:34.875Z,14.81
2022-10-16T09:08:41.728Z,14.81
2022-10-16T09:09:44.487Z,14.88
2022-10-16T09:11:19.016Z,14.94
2022-10-16T09:12:21.903Z,14.94
2022-10-16T09:13:25.326Z,15.06
2022-10-16T09:15:00.011Z,15.13
2022-10-16T09:16:03.112Z,15.19
2022-10-16T09:17:06.402Z,15.19
2022-10-16T09:18:42.216Z,15.25
2022-10-16T09:19:44.968Z,15.19
2022-10-16T09:20:47.872Z,15.25
2022-10-16T09:22:22.629Z,15.25
2022-10-16T09:23:25.422Z,15.25
2022-10-16T09:24:29.387Z,15.31
2022-10-16T09:26:04.289Z,15.31
2022-10-16T09:27:07.300Z,15.31
2022-10-16T09:28:10.640Z,15.38
2022-10-16T09:29:46.255Z,15.38
2022-10-16T09:30:53.392Z,15.38
2022-10-16T09:31:56.258Z,15.50
2022-10-16T09:33:30.935Z,15.50
2022-10-16T09:34:33.816Z,15.63
2022-10-16T09:35:36.576Z,15.63
2022-10-16T09:37:11.109Z,15.63
2022-10-16T09:38:14.594Z,15.69
2022-10-16T09:39:17.396Z,15.75
2022-10-16T09:40:58.901Z,15.75
2022-10-16T09:42:01.848Z,15.75
2022-10-16T09:43:04.955Z,15.75
2022-10-16T09:45:42.545Z,15.81
2022-10-16T09:46:45.200Z,15.81
2022-10-16T09:48:19.831Z,15.81
2022-10-16T09:49:22.844Z,15.81
2022-10-16T09:50:25.847Z,15.81
2022-10-16T09:52:00.596Z,15.88
2022-10-16T09:53:03.242Z,15.88
2022-10-16T09:54:06.292Z,15.94
2022-10-16T09:55:40.910Z,16.00
2022-10-16T09:56:48.820Z,16.00
2022-10-16T09:57:51.610Z,16.00
2022-10-16T09:59:26.224Z,16.00
2022-10-16T10:00:12.098Z,16.00
2022-10-16T10:01:14.900Z,16.00
2022-10-16T10:02:17.620Z,16.00
2022-10-16T10:03:52.495Z,16.00
2022-10-16T10:04:55.399Z,16.00
2022-10-16T10:06:01.292Z,16.06
2022-10-16T10:07:36.975Z,16.06
2022-10-16T10:08:39.832Z,16.13
2022-10-16T10:09:42.862Z,16.13
2022-10-16T10:11:17.718Z,16.19
2022-10-16T10:12:22.990Z,16.19
2022-10-16T10:13:29.307Z,16.25
2022-10-16T10:15:04.046Z,16.31
2022-10-16T10:16:06.964Z,16.38
2022-10-16T10:17:09.716Z,16.44
2022-10-16T10:18:44.486Z,16.44
2022-10-16T10:19:47.261Z,16.38
2022-10-16T10:20:50.187Z,16.38
2022-10-16T10:22:25.475Z,16.25
2022-10-16T10:23:28.716Z,16.19
2022-10-16T10:24:31.454Z,16.19
2022-10-16T10:26:06.234Z,16.25
2022-10-16T10:27:14.902Z,16.25
2022-10-16T10:28:17.691Z,16.31
2022-10-16T10:29:53.015Z,16.38
2022-10-16T10:30:55.956Z,16.38
2022-10-16T10:31:58.816Z,16.50
2022-10-16T10:33:34.662Z,16.50
2022-10-16T10:34:37.653Z,16.56
2022-10-16T10:35:47.375Z,16.50
2022-10-16T10:37:21.899Z,16.44
2022-10-16T10:38:24.889Z,16.44
2022-10-16T10:39:27.738Z,16.44
2022-10-16T10:41:02.432Z,16.38
2022-10-16T10:42:09.739Z,16.38
2022-10-16T10:43:12.999Z,16.38
2022-10-16T10:44:47.970Z,16.44
2022-10-16T10:45:50.740Z,16.44
2022-10-16T10:46:53.708Z,16.50
2022-10-16T10:49:31.262Z,16.38
2022-10-16T10:50:38.270Z,16.38
2022-10-16T10:52:12.762Z,16.56
2022-10-16T10:53:16.186Z,16.56
2022-10-16T10:54:18.998Z,16.56
2022-10-16T10:55:53.683Z,16.50
2022-10-16T10:56:56.437Z,16.44
2022-10-16T10:57:59.378Z,16.44
2022-10-16T10:59:38.829Z,16.44
2022-10-16T11:00:12.525Z,16.38
2022-10-16T11:01:15.783Z,16.38
2022-10-16T11:02:19.151Z,16.31
2022-10-16T11:03:58.328Z,16.25
2022-10-16T11:05:01.871Z,16.25
2022-10-16T11:06:04.747Z,16.19
2022-10-16T11:07:39.510Z,16.13
2022-10-16T11:08:42.471Z,16.13
2022-10-16T11:09:51.036Z,16.06
2022-10-16T11:11:25.799Z,16.06
2022-10-16T11:12:28.582Z,16.00
2022-10-16T11:13:31.614Z,16.00
2022-10-16T11:15:06.259Z,15.94
2022-10-16T11:16:09.320Z,15.94
2022-10-16T11:17:17.848Z,15.88
2022-10-16T11:18:53.283Z,15.88
2022-10-16T11:19:56.109Z,15.94
2022-10-16T11:20:59.243Z,15.94
2022-10-16T11:22:37.960Z,16.00
2022-10-16T11:23:40.836Z,16.06
2022-10-16T11:24:43.669Z,16.13
2022-10-16T11:26:18.564Z,16.25
2022-10-16T11:27:21.413Z,16.38
2022-10-16T11:28:27.899Z,16.44
2022-10-16T11:30:06.346Z,16.56
2022-10-16T11:31:09.468Z,16.75
2022-10-16T11:32:12.398Z,16.81
2022-10-16T11:33:47.079Z,16.81
2022-10-16T11:34:50.373Z,16.81
2022-10-16T11:35:53.431Z,16.88
2022-10-16T11:37:28.429Z,16.94
2022-10-16T11:38:31.417Z,17.00
2022-10-16T11:39:34.344Z,17.06
2022-10-16T11:41:09.346Z,17.13
2022-10-16T11:42:12.122Z,17.19
2022-10-16T11:43:14.913Z,17.19
2022-10-16T11:44:49.761Z,17.19
2022-10-16T11:45:52.771Z,17.19
2022-10-16T11:47:28.522Z,17.19
2022-10-16T11:49:29.683Z,17.25
2022-10-16T11:50:32.434Z,17.25
2022-10-16T11:51:35.152Z,17.25
2022-10-16T11:53:10.153Z,17.25
2022-10-16T11:54:12.925Z,17.31
2022-10-16T11:55:15.788Z,17.25
2022-10-16T11:56:56.934Z,17.19
2022-10-16T11:58:00.639Z,17.19
2022-10-16T11:59:03.909Z,17.19
2022-10-16T12:00:12.124Z,17.19
2022-10-16T12:01:15.359Z,17.25
2022-10-16T12:02:18.369Z,17.25
2022-10-16T12:03:54.119Z,17.31
2022-10-16T12:04:57.362Z,17.38
2022-10-16T12:06:00.267Z,17.38
2022-10-16T12:07:35.017Z,17.44
2022-10-16T12:08:37.958Z,17.44
2022-10-16T12:09:40.743Z,17.50
2022-10-16T12:11:16.164Z,17.50
2022-10-16T12:12:19.315Z,17.44
2022-10-16T12:13:27.723Z,17.31
2022-10-16T12:15:21.906Z,17.25
2022-10-16T12:16:55.300Z,17.19
2022-10-16T12:17:58.348Z,17.19
2022-10-16T12:19:33.212Z,17.19
2022-10-16T12:20:36.278Z,17.25
2022-10-16T12:21:39.137Z,17.25
2022-10-16T12:23:21.315Z,17.25
2022-10-16T12:24:24.489Z,17.25
2022-10-16T12:25:27.330Z,17.25
2022-10-16T12:27:01.878Z,17.25
2022-10-16T12:28:04.756Z,17.19
2022-10-16T12:30:43.076Z,17.31
2022-10-16T12:31:54.770Z,17.31
2022-10-16T12:33:29.788Z,17.38
2022-10-16T12:35:04.667Z,17.38
2022-10-16T12:36:07.479Z,17.38
2022-10-16T12:37:16.034Z,17.31
2022-10-16T12:38:50.919Z,17.31
2022-10-16T12:39:54.046Z,17.31
2022-10-16T12:40:57.062Z,17.25
2022-10-16T12:42:31.915Z,17.19
2022-10-16T12:43:35.069Z,17.19
2022-10-16T12:44:37.996Z,17.19
2022-10-16T12:46:12.862Z,17.13
2022-10-16T12:47:16.194Z,17.13
2022-10-16T12:48:19.392Z,17.13
2022-10-16T12:50:26.793Z,17.06
2022-10-16T12:51:29.759Z,17.00
2022-10-16T12:52:32.970Z,16.94
2022-10-16T12:54:07.964Z,16.88
2022-10-16T12:55:10.964Z,16.88
2022-10-16T12:56:13.924Z,16.88
2022-10-16T12:57:49.440Z,16.88
2022-10-16T12:58:56.186Z,16.81
2022-10-16T12:59:59.491Z,16.88
2022-10-16T13:00:11.883Z,16.88
2022-10-16T13:01:16.846Z,16.88
2022-10-16T13:02:19.889Z,16.81
2022-10-16T13:03:58.751Z,16.75
2022-10-16T13:05:01.634Z,16.75
2022-10-16T13:06:04.979Z,16.75
2022-10-16T13:07:39.896Z,16.81
2022-10-16T13:08:42.767Z,16.81
2022-10-16T13:09:45.771Z,16.81
2022-10-16T13:11:20.741Z,16.81
2022-10-16T13:12:23.780Z,16.75
2022-10-16T13:13:27.004Z,16.69
2022-10-16T13:15:01.646Z,16.69
2022-10-16T13:16:04.654Z,16.56
2022-10-16T13:17:07.672Z,16.56
2022-10-16T13:18:42.909Z,16.56
2022-10-16T13:19:45.811Z,16.56
2022-10-16T13:20:48.841Z,16.56
2022-10-16T13:22:23.704Z,16.63
2022-10-16T13:23:32.328Z,16.69
2022-10-16T13:24:35.647Z,16.75
2022-10-16T13:26:10.710Z,16.88
2022-10-16T13:27:13.486Z,16.94
2022-10-16T13:28:16.971Z,17.00
2022-10-16T13:29:52.359Z,17.13
2022-10-16T13:30:55.430Z,17.19
2022-10-16T13:31:58.435Z,17.19
2022-10-16T13:33:33.614Z,17.25
2022-10-16T13:34:36.613Z,17.31
2022-10-16T13:35:39.443Z,17.31
2022-10-16T13:37:14.471Z,17.38
2022-10-16T13:38:17.943Z,17.38
2022-10-16T13:39:20.910Z,17.44
2022-10-16T13:40:55.720Z,17.38
2022-10-16T13:41:58.522Z,17.38
2022-10-16T13:43:10.222Z,17.25
2022-10-16T13:44:45.149Z,17.25
2022-10-16T13:45:47.768Z,17.13
2022-10-16T13:46:50.969Z,17.06
2022-10-16T13:48:25.942Z,17.00
2022-10-16T13:49:28.666Z,17.00
2022-10-16T13:50:31.716Z,17.00
2022-10-16T13:52:06.912Z,17.00
2022-10-16T13:53:10.633Z,17.00
2022-10-16T13:54:13.583Z,16.94
2022-10-16T13:55:48.738Z,16.94
2022-10-16T13:57:03.120Z,16.88
2022-10-16T13:58:24.945Z,16.88
2022-10-16T13:59:59.580Z,16.81
2022-10-16T14:00:12.655Z,16.81
2022-10-16T14:01:15.857Z,16.81
2022-10-16T14:02:24.917Z,16.81
2022-10-16T14:04:00.235Z,16.75
2022-10-16T14:05:03.064Z,16.75
2022-10-16T14:06:06.170Z,16.69
2022-10-16T14:07:40.830Z,16.69
2022-10-16T14:08:43.806Z,16.69
2022-10-16T14:09:46.661Z,16.69
2022-10-16T14:11:21.582Z,16.63
2022-10-16T14:12:27.241Z,16.63
2022-10-16T14:13:32.129Z,16.63
2022-10-16T14:15:06.841Z,16.63
2022-10-16T14:16:09.949Z,16.63
2022-10-16T14:17:12.983Z,16.63
2022-10-16T14:18:48.025Z,16.63
2022-10-16T14:19:54.706Z,16.63
2022-10-16T14:21:04.144Z,16.63
2022-10-16T14:22:39.225Z,16.63
2022-10-16T14:23:42.146Z,16.63
2022-10-16T14:24:45.009Z,16.63
2022-10-16T14:26:19.800Z,16.63
2022-10-16T14:27:28.900Z,16.63
2022-10-16T14:28:32.262Z,16.63
2022-10-16T14:30:07.793Z,16.63
2022-10-16T14:31:10.839Z,16.63
2022-10-16T14:32:13.634Z,16.63
2022-10-16T14:33:49.148Z,16.63
2022-10-16T14:34:51.870Z,16.63
2022-10-16T14:35:54.854Z,16.63
2022-10-16T14:37:30.025Z,16.63
2022-10-16T14:38:33.612Z,16.56
2022-10-16T14:39:36.637Z,16.56
2022-10-16T14:41:11.586Z,16.56
2022-10-16T14:42:14.529Z,16.56
2022-10-16T14:43:17.763Z,16.56
2022-10-16T14:44:59.300Z,16.50
2022-10-16T14:46:02.342Z,16.50
2022-10-16T14:47:05.292Z,16.50
2022-10-16T14:48:40.803Z,16.50
2022-10-16T14:49:44.932Z,16.44
2022-10-16T14:50:47.965Z,16.44
2022-10-16T14:52:22.561Z,16.44
2022-10-16T14:53:25.382Z,16.44
2022-10-16T14:54:34.824Z,16.44
2022-10-16T14:56:10.915Z,16.38
2022-10-16T14:57:14.138Z,16.44
2022-10-16T14:58:17.844Z,16.44
2022-10-16T14:59:52.408Z,16.38
2022-10-16T15:00:12.470Z,16.38
2022-10-16T15:01:15.389Z,16.38
2022-10-16T15:02:18.422Z,16.38
2022-10-16T15:03:53.395Z,16.31
2022-10-16T15:04:56.704Z,16.31
2022-10-16T15:05:59.631Z,16.31
2022-10-16T15:07:34.595Z,16.31
2022-10-16T15:08:37.538Z,16.25
2022-10-16T15:09:42.079Z,16.25
2022-10-16T15:11:19.766Z,16.25
2022-10-16T15:12:22.847Z,16.19
2022-10-16T15:13:25.768Z,16.19
2022-10-16T15:15:00.889Z,16.13
2022-10-16T15:16:03.873Z,16.13
2022-10-16T15:17:06.728Z,16.13
2022-10-16T15:18:46.186Z,16.06
2022-10-16T15:19:49.076Z,16.06
2022-10-16T15:20:52.011Z,16.06
2022-10-16T15:22:26.848Z,16.06
2022-10-16T15:23:29.960Z,16.00
2022-10-16T15:24:33.313Z,16.00
2022-10-16T15:26:07.924Z,16.00
2022-10-16T15:27:10.770Z,15.94
2022-10-16T15:28:14.243Z,15.94
2022-10-16T15:29:49.453Z,15.94
2022-10-16T15:30:52.510Z,15.88
2022-10-16T15:31:55.424Z,15.88
2022-10-16T15:33:31.572Z,15.88
2022-10-16T15:34:37.535Z,15.88
2022-10-16T15:35:40.445Z,15.88
2022-10-16T15:37:15.074Z,15.88
2022-10-16T15:38:18.351Z,15.88
2022-10-16T15:39:21.175Z,15.88
2022-10-16T15:40:59.371Z,15.88
2022-10-16T15:42:02.387Z,15.88
2022-10-16T15:43:06.251Z,15.88
2022-10-16T15:44:41.164Z,15.88
2022-10-16T15:45:44.040Z,15.88
2022-10-16T15:46:46.902Z,15.88
2022-10-16T15:48:26.252Z,15.81
2022-10-16T15:49:28.985Z,15.81
2022-10-16T15:50:31.905Z,15.75
2022-10-16T15:52:07.962Z,15.75
2022-10-16T15:53:11.470Z,15.69
2022-10-16T15:54:14.428Z,15.69